Time;durP1;ratioP1;P1;durP2;ratioP2;P2;SDS_P1;SDS_P2;PMS_P1;PMS_P2;Temp;Humidity;BMP_temperature;BMP_pressure;BME280_temperature;BME280_humidity;BME280_pressure;Samples;Min_cycle;Max_cycle;Signal;HPM_P1;HPM_P2
2021/08/09 00:01:49;;;;;;;2.63;1.00;;;21.30;61.70;;;;;;5072635;28;20044;-68
2021/08/09 00:04:15;;;;;;;3.08;1.20;;;21.30;61.80;;;;;;5071657;28;20052;-68
2021/08/09 00:06:41;;;;;;;5.05;1.30;;;21.20;62.30;;;;;;5072506;28;20474;-69
2021/08/09 00:09:07;;;;;;;2.47;1.20;;;21.30;62.20;;;;;;5072494;28;20037;-68
2021/08/09 00:11:33;;;;;;;2.47;1.38;;;21.30;62.20;;;;;;5072440;28;20059;-68
2021/08/09 00:13:59;;;;;;;2.80;1.50;;;21.20;62.20;;;;;;5054565;28;20032;-68
2021/08/09 00:16:25;;;;;;;4.43;1.35;;;21.20;62.40;;;;;;5072451;28;20017;-69
2021/08/09 00:18:50;;;;;;;2.17;1.30;;;21.20;62.40;;;;;;5072497;28;20097;-69
2021/08/09 00:21:18;;;;;;;1.58;0.80;;;21.20;62.40;;;;;;5072488;28;20099;-69
2021/08/09 00:23:44;;;;;;;4.70;1.30;;;21.20;62.30;;;;;;5084094;28;20024;-68
2021/08/09 00:26:10;;;;;;;1.10;1.00;;;21.20;62.30;;;;;;5072259;28;20028;-68
2021/08/09 00:28:36;;;;;;;2.05;1.00;;;21.20;62.30;;;;;;5072247;28;20539;-69
2021/08/09 00:31:02;;;;;;;9.02;1.58;;;21.20;62.60;;;;;;5072327;28;20035;-69
2021/08/09 00:33:28;;;;;;;2.95;1.40;;;21.20;62.50;;;;;;5077706;28;20027;-69
2021/08/09 00:35:54;;;;;;;4.65;1.40;;;21.20;62.60;;;;;;5075763;28;20034;-68
2021/08/09 00:38:20;;;;;;;3.78;1.23;;;21.20;62.50;;;;;;5072117;28;20432;-68
2021/08/09 00:40:46;;;;;;;3.17;1.17;;;21.20;62.50;;;;;;5077059;28;20034;-68
2021/08/09 00:43:12;;;;;;;8.82;1.27;;;21.20;62.50;;;;;;5074175;28;20043;-68
2021/08/09 00:45:38;;;;;;;7.45;1.30;;;21.20;62.60;;;;;;5091509;28;20039;-68
2021/08/09 00:48:04;;;;;;;2.58;1.05;;;21.10;62.60;;;;;;5092336;28;20028;-68
2021/08/09 00:50:30;;;;;;;1.63;1.10;;;21.20;62.70;;;;;;5089255;28;20075;-68
2021/08/09 00:52:58;;;;;;;1.25;1.00;;;21.10;63.10;;;;;;5074829;28;20049;-68
2021/08/09 00:55:24;;;;;;;4.72;1.10;;;21.20;63.20;;;;;;5072004;28;20038;-69
2021/08/09 00:57:50;;;;;;;3.97;1.52;;;21.20;63.20;;;;;;5071949;28;20051;-68
2021/08/09 01:00:15;;;;;;;2.05;1.52;;;21.10;63.00;;;;;;5068328;28;20482;-68
2021/08/09 01:02:43;;;;;;;3.90;1.27;;;21.10;63.10;;;;;;5089666;28;20083;-69
2021/08/09 01:05:10;;;;;;;2.58;1.20;;;21.10;62.90;;;;;;5079050;28;20386;-69
2021/08/09 01:07:55;;;;;;;2.53;1.20;;;21.10;63.00;;;;;;5078556;28;20024;-68
2021/08/09 01:10:31;;;;;;;6.07;1.20;;;21.10;63.10;;;;;;5096252;28;20405;-69
2021/08/09 01:13:20;;;;;;;4.80;1.17;;;21.10;63.10;;;;;;5091990;28;20037;-69
2021/08/09 01:15:51;;;;;;;3.38;1.00;;;21.00;63.10;;;;;;5078411;28;20047;-68
2021/08/09 01:18:19;;;;;;;2.33;1.17;;;21.00;63.10;;;;;;5078351;28;20036;-68
2021/08/09 01:20:47;;;;;;;5.60;1.60;;;21.00;63.10;;;;;;5089778;28;20108;-68
2021/08/09 01:23:51;;;;;;;1.70;1.05;;;21.00;63.10;;;;;;5098143;28;20020;-68
2021/08/09 01:26:37;;;;;;;4.18;1.23;;;21.00;63.20;;;;;;5089990;28;20016;-68
2021/08/09 01:29:07;;;;;;;2.20;0.93;;;20.90;63.10;;;;;;5098668;28;20038;-68
2021/08/09 01:31:44;;;;;;;2.70;1.30;;;20.90;63.00;;;;;;5098585;28;20028;-68
2021/08/09 01:34:12;;;;;;;2.97;1.40;;;20.80;63.30;;;;;;5080773;28;20362;-68
2021/08/09 01:36:42;;;;;;;2.38;1.40;;;20.80;63.10;;;;;;5063260;28;20460;-68
2021/08/09 01:39:09;;;;;;;1.85;1.30;;;20.80;63.20;;;;;;5078088;28;20043;-68
2021/08/09 01:41:37;;;;;;;2.55;1.52;;;20.80;63.30;;;;;;5078288;28;20468;-68
2021/08/09 01:44:05;;;;;;;1.73;1.30;;;20.70;63.40;;;;;;5060230;28;20470;-69
2021/08/09 01:46:32;;;;;;;4.45;1.73;;;20.70;63.60;;;;;;5078155;28;20029;-68
2021/08/09 01:48:59;;;;;;;2.05;1.23;;;20.70;64.30;;;;;;5078162;28;20474;-68
2021/08/09 01:51:25;;;;;;;1.23;1.13;;;20.70;64.40;;;;;;5078155;28;20032;-69
2021/08/09 01:53:53;;;;;;;2.85;1.10;;;20.70;64.70;;;;;;5056614;28;20076;-70
2021/08/09 01:56:20;;;;;;;1.50;1.02;;;20.70;64.90;;;;;;5062145;28;20393;-67
2021/08/09 01:58:46;;;;;;;6.72;2.00;;;20.70;64.80;;;;;;5078058;28;20016;-67
2021/08/09 02:01:12;;;;;;;3.35;1.13;;;20.80;64.90;;;;;;5076799;28;20028;-68
2021/08/09 02:03:38;;;;;;;1.80;1.42;;;20.80;64.90;;;;;;5077912;28;20040;-67
2021/08/09 02:06:04;;;;;;;6.00;1.58;;;20.90;64.80;;;;;;5077955;28;20020;-67
2021/08/09 02:08:30;;;;;;;5.90;1.85;;;20.90;64.80;;;;;;5077995;28;20032;-67
2021/08/09 02:11:09;;;;;;;4.32;1.20;;;20.90;64.70;;;;;;5077038;28;20021;-67
2021/08/09 02:13:40;;;;;;;4.70;1.45;;;20.90;65.00;;;;;;5074815;28;20146;-67
2021/08/09 02:16:17;;;;;;;1.42;1.10;;;21.00;64.80;;;;;;5074661;28;20050;-67
2021/08/09 02:18:54;;;;;;;6.40;1.60;;;21.00;64.60;;;;;;5074648;28;20028;-67
2021/08/09 02:21:31;;;;;;;3.40;1.27;;;21.00;64.40;;;;;;5074487;28;20028;-67
2021/08/09 02:24:08;;;;;;;4.78;1.67;;;21.00;64.30;;;;;;5072410;28;20029;-67
2021/08/09 02:26:40;;;;;;;1.80;1.17;;;21.00;64.30;;;;;;5074384;28;20581;-67
2021/08/09 02:29:13;;;;;;;4.15;1.42;;;21.00;64.20;;;;;;5074627;28;20021;-67
2021/08/09 02:31:43;;;;;;;2.20;1.55;;;21.00;64.30;;;;;;5074517;28;20111;-67
2021/08/09 02:34:11;;;;;;;3.83;1.65;;;21.00;64.20;;;;;;5074408;28;20482;-67
2021/08/09 02:36:37;;;;;;;3.20;1.52;;;21.00;64.20;;;;;;5074451;28;20021;-67
2021/08/09 02:39:04;;;;;;;3.40;1.75;;;20.90;64.10;;;;;;5069577;28;20024;-68
2021/08/09 02:41:30;;;;;;;4.05;1.70;;;20.90;64.30;;;;;;5054517;28;20078;-67
2021/08/09 02:43:56;;;;;;;2.08;1.60;;;20.90;64.20;;;;;;5054335;28;20041;-67
2021/08/09 02:46:24;;;;;;;2.83;2.13;;;20.90;64.20;;;;;;5054343;28;20035;-67
2021/08/09 02:48:50;;;;;;;5.07;2.20;;;20.90;64.40;;;;;;5054251;28;20029;-67
2021/08/09 02:51:20;;;;;;;4.20;2.80;;;20.90;64.40;;;;;;5055376;28;20039;-68
2021/08/09 02:53:47;;;;;;;3.72;2.33;;;20.90;64.40;;;;;;5078417;28;20047;-68
2021/08/09 02:56:13;;;;;;;2.40;1.85;;;20.90;64.30;;;;;;5094440;28;20032;-67
2021/08/09 02:58:39;;;;;;;4.13;2.67;;;20.90;64.20;;;;;;5076191;28;20236;-67
2021/08/09 03:01:07;;;;;;;5.03;2.53;;;20.90;64.30;;;;;;5094141;28;20531;-67
2021/08/09 03:03:36;;;;;;;8.15;2.92;;;20.80;64.20;;;;;;5093964;28;20020;-67
2021/08/09 03:06:02;;;;;;;3.95;2.45;;;20.80;64.10;;;;;;5093956;28;20099;-67
2021/08/09 03:08:29;;;;;;;6.28;3.00;;;20.80;64.00;;;;;;5093994;28;20327;-67
2021/08/09 03:10:55;;;;;;;4.95;3.13;;;20.80;64.10;;;;;;5075878;28;20473;-67
2021/08/09 03:13:23;;;;;;;5.70;3.90;;;20.80;64.20;;;;;;5093739;28;20024;-68
2021/08/09 03:15:50;;;;;;;5.03;3.70;;;20.80;64.40;;;;;;5093816;28;20031;-67
2021/08/09 03:18:15;;;;;;;5.07;4.03;;;20.80;64.30;;;;;;5093569;28;20020;-68
2021/08/09 03:20:41;;;;;;;9.02;4.55;;;20.80;64.40;;;;;;5093748;28;20024;-67
2021/08/09 03:23:07;;;;;;;6.18;4.40;;;20.80;64.40;;;;;;5090806;28;20106;-68
2021/08/09 03:25:33;;;;;;;12.43;4.93;;;20.80;64.40;;;;;;5093499;28;20020;-67
2021/08/09 03:27:59;;;;;;;9.38;5.18;;;20.80;64.50;;;;;;5075401;28;20020;-68
2021/08/09 03:30:29;;;;;;;7.15;4.90;;;20.70;64.20;;;;;;5093492;28;20116;-67
2021/08/09 03:32:54;;;;;;;9.48;5.43;;;20.70;64.40;;;;;;5093727;28;20032;-69
2021/08/09 03:35:21;;;;;;;9.68;4.40;;;20.60;64.20;;;;;;5093178;28;20477;-68
2021/08/09 03:37:48;;;;;;;10.43;4.63;;;20.60;64.30;;;;;;5087455;28;20031;-68
2021/08/09 03:40:14;;;;;;;6.05;4.22;;;20.50;64.40;;;;;;5072993;28;20027;-68
2021/08/09 03:42:40;;;;;;;10.95;5.35;;;20.50;64.50;;;;;;5073043;28;20048;-69
2021/08/09 03:45:07;;;;;;;8.63;5.60;;;20.50;64.80;;;;;;5072980;28;20167;-69
2021/08/09 03:47:33;;;;;;;10.98;4.45;;;20.50;64.90;;;;;;5073118;28;20047;-69
2021/08/09 03:49:59;;;;;;;6.97;4.30;;;20.40;64.90;;;;;;5072803;28;20450;-68
2021/08/09 03:52:25;;;;;;;7.57;5.03;;;20.40;64.90;;;;;;5054569;28;20482;-69
2021/08/09 03:54:51;;;;;;;9.93;4.97;;;20.40;65.00;;;;;;5074117;28;20107;-68
2021/08/09 03:57:16;;;;;;;12.88;4.60;;;20.40;65.00;;;;;;5072544;28;20032;-68
2021/08/09 03:59:42;;;;;;;6.88;4.03;;;20.40;65.10;;;;;;5072647;28;20056;-69
2021/08/09 04:02:13;;;;;;;10.32;4.82;;;20.40;65.10;;;;;;5072906;28;20033;-69
2021/08/09 04:04:39;;;;;;;5.88;3.53;;;20.40;65.10;;;;;;5072622;28;20031;-68
2021/08/09 04:07:05;;;;;;;8.15;4.32;;;20.30;65.00;;;;;;5082797;28;20020;-68
2021/08/09 04:09:31;;;;;;;7.72;4.03;;;20.30;65.10;;;;;;5093167;28;20529;-68
2021/08/09 04:11:56;;;;;;;5.25;3.63;;;20.30;66.00;;;;;;5092523;28;20044;-68
2021/08/09 04:14:22;;;;;;;6.88;4.22;;;20.30;65.20;;;;;;5092550;28;20077;-68
2021/08/09 04:16:48;;;;;;;8.95;3.78;;;20.30;65.30;;;;;;5092472;28;20110;-68
2021/08/09 04:19:14;;;;;;;6.25;3.55;;;20.30;65.30;;;;;;5092361;28;20024;-68
2021/08/09 04:21:40;;;;;;;7.75;4.30;;;20.30;65.30;;;;;;5092400;28;20485;-68
2021/08/09 04:24:05;;;;;;;6.97;4.85;;;20.30;65.40;;;;;;5079885;28;20108;-68
2021/08/09 04:26:31;;;;;;;7.00;4.30;;;20.30;65.40;;;;;;5071899;28;20028;-68
2021/08/09 04:28:57;;;;;;;8.00;4.10;;;20.30;65.30;;;;;;5072108;28;20033;-68
2021/08/09 04:31:23;;;;;;;6.43;4.35;;;20.30;65.20;;;;;;5076498;28;20031;-68
2021/08/09 04:33:50;;;;;;;6.00;3.50;;;20.30;65.20;;;;;;5092089;28;20028;-68
2021/08/09 04:36:16;;;;;;;7.10;4.00;;;20.30;65.10;;;;;;5092391;28;20378;-69
2021/08/09 04:38:42;;;;;;;7.50;4.15;;;20.30;64.90;;;;;;5078728;28;20512;-68
2021/08/09 04:41:10;;;;;;;11.88;4.20;;;20.20;64.90;;;;;;5072067;28;20386;-68
2021/08/09 04:43:37;;;;;;;5.82;4.15;;;20.10;64.80;;;;;;5072034;28;20079;-68
2021/08/09 04:46:04;;;;;;;6.45;4.35;;;20.10;64.80;;;;;;5054310;28;20125;-68
2021/08/09 04:48:30;;;;;;;6.70;4.60;;;20.10;64.90;;;;;;5076456;28;20039;-68
2021/08/09 04:50:56;;;;;;;7.78;4.82;;;20.10;65.20;;;;;;5092311;28;20032;-68
2021/08/09 04:53:22;;;;;;;7.50;4.45;;;20.10;65.30;;;;;;5088981;28;20400;-68
2021/08/09 04:55:47;;;;;;;7.15;4.80;;;20.10;65.40;;;;;;5084879;28;20042;-68
2021/08/09 04:58:13;;;;;;;6.15;4.00;;;20.00;65.60;;;;;;5092098;28;20036;-68
2021/08/09 05:00:39;;;;;;;6.38;4.35;;;20.00;65.80;;;;;;5089116;28;20081;-68
2021/08/09 05:03:05;;;;;;;7.20;4.35;;;20.10;65.80;;;;;;5081879;28;20414;-68
2021/08/09 05:05:31;;;;;;;8.93;5.13;;;20.10;65.70;;;;;;5092004;28;20016;-68
2021/08/09 05:07:57;;;;;;;7.15;4.30;;;20.10;65.60;;;;;;5075135;28;20079;-68
2021/08/09 05:10:24;;;;;;;6.32;4.55;;;20.10;65.50;;;;;;5089783;28;20020;-69
2021/08/09 05:12:50;;;;;;;6.93;4.57;;;20.20;65.40;;;;;;5091839;28;20500;-68
2021/08/09 05:15:17;;;;;;;7.95;4.30;;;20.20;65.50;;;;;;5091123;28;20024;-68
2021/08/09 05:17:43;;;;;;;6.13;4.53;;;20.20;65.50;;;;;;5091591;28;20051;-68
2021/08/09 05:20:09;;;;;;;7.47;4.70;;;20.30;65.60;;;;;;5088617;28;20020;-68
2021/08/09 05:22:36;;;;;;;8.25;4.75;;;20.30;65.50;;;;;;5090903;28;20024;-68
2021/08/09 05:25:03;;;;;;;5.95;4.70;;;20.40;65.10;;;;;;5072003;28;20025;-68
2021/08/09 05:27:30;;;;;;;11.10;4.53;;;20.50;65.10;;;;;;5091962;28;20027;-69
2021/08/09 05:29:56;;;;;;;5.55;4.32;;;20.60;64.90;;;;;;5083870;28;20503;-68
2021/08/09 05:32:21;;;;;;;7.22;3.97;;;20.60;64.70;;;;;;5071382;28;20151;-68
2021/08/09 05:34:47;;;;;;;4.72;3.35;;;20.70;64.60;;;;;;5071667;28;20378;-68
2021/08/09 05:37:14;;;;;;;5.18;3.70;;;20.80;64.50;;;;;;5087023;28;20028;-69
2021/08/09 05:39:40;;;;;;;4.40;3.97;;;20.90;64.20;;;;;;5075326;28;20107;-68
2021/08/09 05:42:07;;;;;;;7.78;3.83;;;21.00;63.90;;;;;;5076395;28;20058;-69
2021/08/09 05:44:33;;;;;;;5.38;3.47;;;21.00;63.60;;;;;;5073378;28;20021;-68
2021/08/09 05:46:58;;;;;;;5.00;3.65;;;21.10;63.30;;;;;;5092945;28;20390;-67
2021/08/09 05:49:24;;;;;;;5.28;3.47;;;21.20;63.30;;;;;;5095363;28;20034;-68
2021/08/09 05:51:50;;;;;;;5.85;3.47;;;21.30;63.30;;;;;;5095409;28;20028;-68
2021/08/09 05:54:16;;;;;;;5.15;2.88;;;21.50;63.00;;;;;;5094447;28;20062;-68
2021/08/09 05:56:42;;;;;;;4.53;3.25;;;21.60;62.70;;;;;;5091435;28;21000;-68
2021/08/09 05:59:07;;;;;;;5.55;3.53;;;21.70;62.60;;;;;;5081132;28;20099;-68
2021/08/09 06:01:33;;;;;;;4.13;3.03;;;21.80;62.30;;;;;;5083925;28;20078;-67
2021/08/09 06:03:59;;;;;;;5.00;3.55;;;21.90;62.20;;;;;;5074727;28;20091;-67
2021/08/09 06:06:25;;;;;;;4.78;3.67;;;22.00;62.10;;;;;;5092079;28;20020;-67
2021/08/09 06:08:51;;;;;;;6.05;3.80;;;22.20;61.90;;;;;;5094873;28;20102;-69
2021/08/09 06:11:17;;;;;;;8.32;3.92;;;22.30;61.60;;;;;;5095083;28;20024;-69
2021/08/09 06:13:43;;;;;;;6.40;4.55;;;22.40;61.10;;;;;;5094820;28;20104;-69
2021/08/09 06:16:09;;;;;;;17.95;5.55;;;22.50;60.60;;;;;;5094894;28;20111;-68
2021/08/09 06:18:36;;;;;;;11.50;4.85;;;22.50;59.80;;;;;;5093964;28;20039;-68
2021/08/09 06:21:02;;;;;;;6.63;4.90;;;22.60;59.70;;;;;;5094110;28;20028;-69
2021/08/09 06:23:28;;;;;;;11.45;5.05;;;22.60;59.70;;;;;;5094369;28;20161;-69
2021/08/09 06:25:55;;;;;;;8.50;5.60;;;22.60;59.60;;;;;;5062146;28;20521;-68
2021/08/09 06:28:24;;;;;;;8.20;5.13;;;22.70;59.70;;;;;;5084134;28;20024;-68
2021/08/09 06:30:50;;;;;;;6.38;4.50;;;22.80;59.60;;;;;;5093949;28;20481;-69
2021/08/09 06:33:16;;;;;;;6.47;4.47;;;22.80;59.10;;;;;;5093579;28;20032;-68
2021/08/09 06:35:42;;;;;;;8.23;3.78;;;22.80;58.80;;;;;;5078457;28;20036;-69
2021/08/09 06:38:08;;;;;;;8.48;5.32;;;22.80;58.80;;;;;;5068837;28;20028;-69
2021/08/09 06:40:35;;;;;;;7.35;5.10;;;22.70;58.60;;;;;;5088013;28;20024;-69
2021/08/09 06:43:03;;;;;;;8.88;6.07;;;22.70;58.60;;;;;;5082199;28;20024;-69
2021/08/09 06:45:30;;;;;;;11.07;6.65;;;22.60;58.40;;;;;;5088262;28;20109;-68
2021/08/09 06:47:55;;;;;;;16.55;8.70;;;22.60;58.50;;;;;;5093550;28;20020;-68
2021/08/09 06:50:21;;;;;;;14.35;9.00;;;22.60;58.60;;;;;;5076159;28;20028;-68
2021/08/09 06:52:47;;;;;;;10.93;7.45;;;22.50;58.70;;;;;;5091855;28;20032;-68
2021/08/09 06:55:13;;;;;;;13.15;7.70;;;22.50;58.80;;;;;;5094347;28;20036;-68
2021/08/09 06:57:39;;;;;;;14.75;10.15;;;22.50;58.90;;;;;;5093347;28;20101;-68
2021/08/09 07:00:06;;;;;;;16.23;9.40;;;22.50;59.00;;;;;;5093981;28;20077;-68
2021/08/09 07:02:32;;;;;;;26.00;14.25;;;22.40;59.20;;;;;;5094124;28;20020;-68
2021/08/09 07:04:59;;;;;;;23.35;13.38;;;22.40;59.00;;;;;;5092943;28;20382;-69
2021/08/09 07:07:25;;;;;;;31.92;16.95;;;22.40;59.10;;;;;;5093724;28;20028;-68
2021/08/09 07:09:50;;;;;;;29.10;16.95;;;22.40;59.00;;;;;;5093770;28;20023;-69
2021/08/09 07:12:16;;;;;;;33.70;18.17;;;22.40;59.00;;;;;;5093683;28;20027;-69
2021/08/09 07:14:42;;;;;;;29.17;16.83;;;22.40;59.00;;;;;;5093818;28;20424;-69
2021/08/09 07:17:08;;;;;;;26.83;15.38;;;22.40;59.10;;;;;;5094016;28;20435;-68
2021/08/09 07:19:37;;;;;;;33.55;16.60;;;22.50;59.20;;;;;;5093701;28;20099;-69
2021/08/09 07:22:03;;;;;;;32.58;19.58;;;22.50;59.10;;;;;;5093633;28;20021;-68
2021/08/09 07:24:29;;;;;;;33.97;18.10;;;22.60;58.90;;;;;;5092595;28;20110;-68
2021/08/09 07:26:55;;;;;;;30.83;18.08;;;22.60;59.00;;;;;;5093200;28;20112;-69
2021/08/09 07:29:21;;;;;;;26.45;16.02;;;22.70;58.90;;;;;;5093300;28;20024;-69
2021/08/09 07:31:47;;;;;;;28.13;16.35;;;22.70;58.80;;;;;;5074814;28;20049;-68
2021/08/09 07:34:13;;;;;;;34.95;18.92;;;22.80;58.80;;;;;;5093248;28;20481;-69
2021/08/09 07:36:39;;;;;;;30.08;17.13;;;22.90;58.70;;;;;;5093285;28;20039;-69
2021/08/09 07:39:05;;;;;;;30.10;13.40;;;22.90;58.60;;;;;;5093245;28;20024;-68
2021/08/09 07:41:31;;;;;;;18.83;11.68;;;23.10;58.20;;;;;;5093012;28;20398;-69
2021/08/09 07:43:56;;;;;;;21.88;12.35;;;23.20;58.20;;;;;;5093132;28;20489;-67
2021/08/09 07:46:27;;;;;;;19.55;12.18;;;23.40;58.00;;;;;;5093067;28;20026;-68
2021/08/09 07:48:53;;;;;;;20.83;13.02;;;23.60;57.60;;;;;;5092238;28;20020;-68
2021/08/09 07:51:19;;;;;;;19.88;12.93;;;23.80;57.10;;;;;;5093267;28;20063;-69
2021/08/09 07:53:45;;;;;;;21.80;11.75;;;24.00;56.70;;;;;;5092715;28;20494;-68
2021/08/09 07:56:11;;;;;;;18.65;10.23;;;24.20;56.60;;;;;;5092979;28;20031;-68
2021/08/09 07:58:37;;;;;;;19.80;11.10;;;24.40;55.70;;;;;;5092894;28;20470;-69
2021/08/09 08:01:03;;;;;;;15.80;8.73;;;24.60;56.00;;;;;;5092736;28;20152;-68
2021/08/09 08:03:28;;;;;;;18.83;9.30;;;24.70;56.20;;;;;;5092712;28;20043;-68
2021/08/09 08:05:54;;;;;;;17.40;9.27;;;24.90;54.80;;;;;;5092636;28;20091;-68
2021/08/09 08:08:21;;;;;;;17.65;10.18;;;25.00;54.50;;;;;;5092650;28;20085;-68
2021/08/09 08:10:47;;;;;;;15.18;8.63;;;25.20;54.20;;;;;;5091954;28;20085;-68
2021/08/09 08:13:13;;;;;;;13.27;8.30;;;25.40;54.50;;;;;;5092445;28;20031;-68
2021/08/09 08:15:39;;;;;;;10.48;6.90;;;25.50;54.20;;;;;;5092458;28;20028;-68
2021/08/09 08:18:05;;;;;;;9.65;6.80;;;25.70;53.00;;;;;;5091031;28;20504;-69
2021/08/09 08:20:30;;;;;;;8.02;4.53;;;25.80;53.00;;;;;;5092527;28;20031;-69
2021/08/09 08:22:58;;;;;;;9.40;5.30;;;26.00;52.60;;;;;;5092474;28;20027;-69
2021/08/09 08:25:23;;;;;;;4.82;3.83;;;26.10;51.60;;;;;;5092494;28;20012;-69
2021/08/09 08:27:49;;;;;;;7.38;4.03;;;26.20;51.30;;;;;;5092338;28;20047;-69
2021/08/09 08:30:16;;;;;;;8.25;4.95;;;26.40;51.30;;;;;;5092339;28;20024;-69
2021/08/09 08:32:42;;;;;;;7.32;4.50;;;26.50;51.40;;;;;;5092396;28;20019;-70
2021/08/09 08:35:09;;;;;;;8.15;3.63;;;26.60;50.70;;;;;;5074508;28;20363;-68
2021/08/09 08:37:35;;;;;;;12.65;4.30;;;26.70;50.00;;;;;;5092147;28;20054;-69
2021/08/09 08:40:01;;;;;;;11.27;4.60;;;26.80;49.90;;;;;;5087052;28;20016;-68
2021/08/09 08:42:27;;;;;;;8.07;4.30;;;26.90;50.30;;;;;;5072029;28;20027;-69
2021/08/09 08:44:53;;;;;;;7.13;4.45;;;27.00;50.60;;;;;;5071962;28;20017;-69
2021/08/09 08:47:20;;;;;;;9.43;4.38;;;27.00;50.20;;;;;;5071980;28;20388;-69
2021/08/09 08:49:47;;;;;;;7.50;4.40;;;27.10;49.80;;;;;;5090227;28;20038;-69
2021/08/09 08:52:14;;;;;;;7.05;4.88;;;27.30;50.00;;;;;;5092140;28;20028;-68
2021/08/09 08:54:40;;;;;;;7.57;4.28;;;27.40;48.60;;;;;;5091945;28;20565;-69
2021/08/09 08:57:19;;;;;;;7.88;4.82;;;27.50;49.20;;;;;;5091958;28;20474;-68
2021/08/09 08:59:46;;;;;;;6.45;4.80;;;27.60;47.90;;;;;;5092015;28;20038;-68
2021/08/09 09:02:35;;;;;;;6.97;4.25;;;27.70;48.00;;;;;;5091866;28;20024;-69
2021/08/09 09:05:09;;;;;;;5.72;4.00;;;27.70;48.00;;;;;;5091835;28;20117;-69
2021/08/09 09:07:37;;;;;;;6.30;3.97;;;27.80;47.70;;;;;;5073625;28;20489;-68
2021/08/09 09:10:26;;;;;;;6.22;4.30;;;27.80;47.20;;;;;;5091840;28;20461;-70
2021/08/09 09:13:14;;;;;;;7.95;4.68;;;27.70;46.70;;;;;;5092081;28;20030;-68
2021/08/09 09:15:54;;;;;;;5.40;4.00;;;27.70;47.00;;;;;;5092566;28;20030;-68
2021/08/09 09:18:21;;;;;;;7.28;3.88;;;27.50;46.60;;;;;;5091038;28;20024;-68
2021/08/09 09:20:47;;;;;;;5.15;3.35;;;27.40;46.20;;;;;;5092870;28;20046;-68
2021/08/09 09:23:19;;;;;;;3.80;3.17;;;27.20;45.60;;;;;;5095897;28;20478;-68
2021/08/09 09:25:45;;;;;;;10.45;3.75;;;27.10;46.10;;;;;;5095815;28;20471;-69
2021/08/09 09:28:33;;;;;;;7.63;3.55;;;27.00;46.10;;;;;;5095674;28;20028;-68
2021/08/09 09:31:12;;;;;;;6.70;3.03;;;26.80;45.30;;;;;;5095810;28;20023;-68
2021/08/09 09:33:45;;;;;;;6.15;2.60;;;26.70;46.30;;;;;;5095703;28;20564;-68
2021/08/09 09:36:11;;;;;;;4.72;2.78;;;26.60;45.80;;;;;;5077665;28;20438;-68
2021/08/09 09:38:44;;;;;;;5.85;3.13;;;26.50;46.10;;;;;;5095537;28;20115;-69
2021/08/09 09:41:11;;;;;;;4.73;2.97;;;26.40;47.10;;;;;;5095498;28;20024;-68
2021/08/09 09:43:42;;;;;;;4.00;2.75;;;26.40;47.60;;;;;;5095576;28;20108;-69
2021/08/09 09:46:21;;;;;;;5.10;2.78;;;26.40;48.00;;;;;;5095334;28;20020;-68
2021/08/09 09:48:48;;;;;;;4.68;2.88;;;26.40;47.70;;;;;;5094548;28;20024;-69
2021/08/09 09:51:18;;;;;;;5.25;3.10;;;26.40;46.50;;;;;;5077191;28;20020;-69
2021/08/09 09:53:46;;;;;;;5.07;2.33;;;26.40;46.60;;;;;;5095187;28;20040;-69
2021/08/09 09:56:12;;;;;;;4.18;2.20;;;26.30;47.10;;;;;;5095227;28;20028;-69
2021/08/09 09:58:39;;;;;;;3.72;2.20;;;26.30;47.50;;;;;;5095119;28;20023;-69
2021/08/09 10:01:09;;;;;;;6.80;2.55;;;26.40;47.40;;;;;;5095121;28;20020;-67
2021/08/09 10:03:36;;;;;;;3.35;2.20;;;26.40;46.60;;;;;;5095072;28;20020;-70
2021/08/09 10:06:03;;;;;;;3.17;1.75;;;26.40;46.30;;;;;;5095009;28;20027;-69
2021/08/09 10:08:33;;;;;;;2.08;1.70;;;26.40;46.10;;;;;;5095043;28;20096;-69
2021/08/09 10:11:03;;;;;;;1.83;1.65;;;26.50;45.20;;;;;;5095066;28;20024;-69
2021/08/09 10:13:31;;;;;;;3.50;1.70;;;26.50;45.60;;;;;;5094851;28;20055;-69
2021/08/09 10:16:11;;;;;;;2.85;1.65;;;26.50;45.60;;;;;;5094798;28;20024;-69
2021/08/09 10:18:42;;;;;;;3.67;1.33;;;26.60;46.10;;;;;;5094399;28;20073;-69
2021/08/09 10:21:09;;;;;;;2.97;1.30;;;26.60;45.20;;;;;;5094780;28;20031;-69
2021/08/09 10:23:43;;;;;;;2.28;1.27;;;26.60;44.90;;;;;;5094725;28;20031;-69
2021/08/09 10:26:12;;;;;;;2.90;1.88;;;26.60;44.90;;;;;;5094570;28;20099;-69
2021/08/09 10:28:53;;;;;;;3.65;1.35;;;26.60;45.20;;;;;;5094053;28;20024;-69
2021/08/09 10:31:30;;;;;;;1.70;1.23;;;26.70;45.10;;;;;;5094622;28;20031;-69
2021/08/09 10:33:58;;;;;;;4.30;1.38;;;26.80;44.60;;;;;;5080102;28;20497;-69
2021/08/09 10:36:26;;;;;;;4.20;1.40;;;26.80;45.40;;;;;;5074210;28;20021;-68
2021/08/09 10:39:00;;;;;;;4.22;1.77;;;26.80;44.90;;;;;;5073765;28;20056;-68
2021/08/09 10:41:33;;;;;;;3.35;1.60;;;26.90;44.60;;;;;;5074216;28;20111;-68
2021/08/09 10:44:05;;;;;;;3.88;1.52;;;27.00;44.20;;;;;;5087401;28;20051;-69
2021/08/09 10:46:33;;;;;;;2.30;1.20;;;27.00;44.10;;;;;;5093498;28;20173;-69
2021/08/09 10:48:59;;;;;;;3.08;1.17;;;27.10;44.20;;;;;;5093730;28;20078;-68
2021/08/09 10:51:52;;;;;;;1.83;0.98;;;27.20;44.60;;;;;;5092708;28;20101;-69
2021/08/09 10:54:26;;;;;;;1.83;0.97;;;27.30;44.40;;;;;;5045795;28;20075;-69
2021/08/09 10:56:52;;;;;;;;;;;27.30;43.80;;;;;;5054188;28;20040;-69
2021/08/09 10:59:37;;;;;;;4.75;1.40;;;27.40;45.00;;;;;;5054166;28;19952;-69
2021/08/09 11:02:04;;;;;;;1.83;1.00;;;27.40;44.20;;;;;;5053847;28;20403;-68
2021/08/09 11:04:30;;;;;;;1.50;1.20;;;27.50;44.20;;;;;;5051984;28;20029;-68
2021/08/09 11:06:56;;;;;;;1.75;0.95;;;27.50;43.90;;;;;;5052772;28;20067;-69
2021/08/09 11:09:31;;;;;;;1.48;1.00;;;27.60;43.10;;;;;;5052480;28;20104;-67
2021/08/09 11:12:09;;;;;;;1.30;1.00;;;27.60;42.50;;;;;;5053501;28;20029;-68
2021/08/09 11:17:27;;;;;;;4.35;1.25;;;27.60;43.50;;;;;;5043100;28;20533;-70
2021/08/09 11:20:08;;;;;;;1.92;1.27;;;27.70;42.70;;;;;;5051976;28;20083;-68
2021/08/09 11:22:35;;;;;;;3.85;1.20;;;27.70;42.70;;;;;;5052569;28;20100;-68
2021/08/09 11:25:00;;;;;;;1.70;1.00;;;27.70;43.40;;;;;;5041075;28;20030;-70
2021/08/09 11:27:26;;;;;;;2.03;1.10;;;27.70;43.90;;;;;;5036052;28;20364;-69
2021/08/09 11:29:53;;;;;;;4.30;1.10;;;27.70;43.90;;;;;;5042373;28;20100;-68
2021/08/09 11:32:38;;;;;;;2.38;0.98;;;27.80;43.50;;;;;;5051589;28;20529;-69
2021/08/09 11:35:04;;;;;;;2.60;1.10;;;27.80;43.70;;;;;;5052325;28;20029;-69
2021/08/09 11:37:30;;;;;;;2.53;0.93;;;27.70;41.70;;;;;;5052148;28;20032;-69
2021/08/09 11:39:56;;;;;;;1.92;1.23;;;27.70;41.80;;;;;;5047605;28;20048;-69
2021/08/09 11:42:21;;;;;;;5.38;1.40;;;27.70;42.20;;;;;;5052183;28;20053;-69
2021/08/09 11:44:47;;;;;;;2.83;0.95;;;27.70;42.70;;;;;;5045389;28;20025;-69
2021/08/09 11:47:22;;;;;;;1.60;1.10;;;27.70;42.90;;;;;;5032138;28;20452;-68
2021/08/09 11:49:54;;;;;;;1.15;0.93;;;27.70;43.20;;;;;;5047918;28;20098;-69
2021/08/09 11:52:21;;;;;;;4.28;1.10;;;27.80;42.60;;;;;;5032163;28;20033;-68
2021/08/09 11:54:47;;;;;;;1.70;1.20;;;27.80;42.40;;;;;;5068529;28;20057;-68
2021/08/09 11:57:13;;;;;;;1.48;0.82;;;27.90;42.20;;;;;;5071932;28;20028;-69
2021/08/09 11:59:40;;;;;;;1.92;0.75;;;27.90;42.10;;;;;;5053530;28;20516;-69
2021/08/09 12:02:08;;;;;;;2.20;1.40;;;27.90;42.10;;;;;;5090710;28;20035;-69
2021/08/09 12:04:44;;;;;;;2.90;0.90;;;27.90;41.70;;;;;;5091633;28;20016;-70
2021/08/09 12:07:20;;;;;;;1.17;0.77;;;27.90;42.10;;;;;;5091570;28;20098;-70
2021/08/09 12:09:47;;;;;;;1.13;0.80;;;27.90;41.50;;;;;;5091721;28;20470;-69
2021/08/09 12:12:15;;;;;;;1.88;1.05;;;27.90;41.10;;;;;;5073253;28;20070;-69
2021/08/09 12:14:42;;;;;;;2.33;0.80;;;27.90;41.60;;;;;;5071506;28;20032;-70
2021/08/09 12:17:26;;;;;;;2.30;1.15;;;28.00;42.10;;;;;;5053502;28;20409;-69
2021/08/09 12:19:53;;;;;;;1.25;0.80;;;28.00;42.20;;;;;;5071284;28;20095;-69
2021/08/09 12:22:32;;;;;;;1.95;0.90;;;28.00;42.00;;;;;;5087543;28;20039;-70
2021/08/09 12:25:00;;;;;;;3.70;0.88;;;28.10;41.50;;;;;;5091798;28;20031;-70
2021/08/09 12:27:27;;;;;;;2.08;0.90;;;28.20;40.40;;;;;;5079154;28;20031;-70
2021/08/09 12:30:11;;;;;;;2.10;1.00;;;28.20;40.80;;;;;;5053384;28;20028;-69
2021/08/09 12:32:56;;;;;;;5.95;1.42;;;28.20;41.30;;;;;;5071011;28;20025;-70
2021/08/09 12:35:31;;;;;;;1.27;1.02;;;28.30;41.80;;;;;;5053017;28;20428;-70
2021/08/09 12:37:58;;;;;;;0.80;0.70;;;28.30;41.20;;;;;;5071342;28;20112;-70
2021/08/09 12:40:24;;;;;;;3.78;0.70;;;28.40;41.10;;;;;;5090863;28;20046;-69
2021/08/09 12:43:09;;;;;;;0.98;0.80;;;28.40;40.60;;;;;;5091395;28;20529;-69
2021/08/09 12:45:38;;;;;;;1.27;0.75;;;28.50;40.80;;;;;;5091316;28;20489;-69
2021/08/09 12:48:05;;;;;;;2.42;0.75;;;28.50;40.70;;;;;;5072311;28;20035;-70
2021/08/09 12:50:33;;;;;;;1.25;0.77;;;28.50;41.00;;;;;;5091238;28;20035;-70
2021/08/09 12:52:58;;;;;;;0.70;0.70;;;28.60;41.10;;;;;;5090918;28;20048;-70
2021/08/09 12:55:25;;;;;;;1.65;0.75;;;28.60;41.30;;;;;;5071274;28;20545;-70